Terminal Aerodrome Forecast
Issued by NWS Blacksburg, VA

Current Version | Previous Version | Text Only | Print | Product List | Glossary Off
Versions: 1 2 3 4 5 6 7 8 9 10 11 12 13 14 15 16 17 18 19 20 21 22 23 24 25 26 27 28 29 30 31 32 33 34 35 36 37 38 39 40

000
FTUS41 KRNK 262342
TAFBLF
TAF
KBLF 262342Z 2700/2724 25007KT P6SM BKN100 OVC250
     FM271000 25007KT P6SM VCTS SCT050CB OVC090 PROB30 2710/2713
      27015G30KT 5SM -TSRA BR BKN045CB
     FM271400 24013G23KT P6SM VCSH SCT045 BKN080 OVC150
      TEMPO 2714/2717 5SM -SHRA BR BKN045
     FM271700 24014G24KT P6SM VCTS BKN040CB OVC080=

USA.gov is the U.S. government's official web portal to all federal, state and local government web resources and services.